createdAt,value
2022-08-22T00:03:16.333Z,25.50
2022-08-22T00:03:59.118Z,25.50
2022-08-22T00:09:05.617Z,25.50
2022-08-22T00:14:11.312Z,25.60
2022-08-22T00:19:22.991Z,25.40
2022-08-22T00:24:29.591Z,25.50
2022-08-22T00:29:35.641Z,25.50
2022-08-22T00:34:44.581Z,25.50
2022-08-22T00:39:49.353Z,25.40
2022-08-22T00:45:03.618Z,25.50
2022-08-22T00:50:25.026Z,25.50
2022-08-22T00:55:40.686Z,25.50
2022-08-22T01:00:44.837Z,25.50
2022-08-22T01:05:57.953Z,25.50
2022-08-22T01:11:08.554Z,25.50
2022-08-22T01:16:18.277Z,25.40
2022-08-22T01:21:51.091Z,25.40
2022-08-22T01:27:17.934Z,25.40
2022-08-22T01:32:38.906Z,25.40
2022-08-22T01:37:54.357Z,25.40
2022-08-22T01:43:01.932Z,25.50
2022-08-22T01:48:07.569Z,25.40
2022-08-22T01:53:15.129Z,25.40
2022-08-22T01:58:19.126Z,25.40
2022-08-22T02:03:24.421Z,25.50
2022-08-22T02:08:32.385Z,25.40
2022-08-22T02:13:46.037Z,25.40
2022-08-22T02:18:53.516Z,25.40
2022-08-22T02:23:58.651Z,25.50
2022-08-22T02:29:07.283Z,25.40
2022-08-22T02:34:19.157Z,25.50
2022-08-22T02:39:28.189Z,25.40
2022-08-22T02:44:34.050Z,25.50
2022-08-22T02:49:43.850Z,25.40
2022-08-22T02:54:54.985Z,25.30
2022-08-22T03:00:05.780Z,25.40
2022-08-22T03:05:29.783Z,25.40
2022-08-22T03:10:38.057Z,25.30
2022-08-22T03:15:49.323Z,25.30
2022-08-22T03:20:53.948Z,25.30
2022-08-22T03:26:01.798Z,25.30
2022-08-22T03:31:12.731Z,25.40
2022-08-22T03:36:25.858Z,25.30
2022-08-22T03:41:55.652Z,25.20
2022-08-22T03:47:10.315Z,25.20
2022-08-22T03:52:23.413Z,25.30
2022-08-22T03:57:46.033Z,25.20
2022-08-22T04:03:07.657Z,25.30
2022-08-22T04:08:31.771Z,25.30
2022-08-22T04:13:49.295Z,25.20
2022-08-22T04:18:58.806Z,25.30
2022-08-22T04:24:08.151Z,25.30
2022-08-22T04:29:20.130Z,25.30
2022-08-22T04:34:25.227Z,25.30
2022-08-22T04:39:35.319Z,25.20
2022-08-22T04:44:39.585Z,25.20
2022-08-22T04:49:45.915Z,25.20
2022-08-22T04:54:55.313Z,25.20
2022-08-22T05:00:02.345Z,25.20
2022-08-22T05:05:13.439Z,25.30
2022-08-22T05:10:20.225Z,25.20
2022-08-22T05:15:25.431Z,25.20
2022-08-22T05:20:29.733Z,25.10
2022-08-22T05:25:36.626Z,25.20
2022-08-22T05:30:39.790Z,25.10
2022-08-22T05:35:48.616Z,25.10
2022-08-22T05:40:55.903Z,25.10
2022-08-22T05:45:59.012Z,25.10
2022-08-22T05:51:04.746Z,25.20
2022-08-22T05:56:10.133Z,25.10
2022-08-22T06:01:19.385Z,25.10
2022-08-22T06:06:22.676Z,25.00
2022-08-22T06:11:33.718Z,25.10
2022-08-22T06:16:40.953Z,25.10
2022-08-22T06:21:52.390Z,25.10
2022-08-22T06:27:00.138Z,25.10
2022-08-22T06:32:05.675Z,25.10
2022-08-22T06:37:10.657Z,25.10
2022-08-22T06:42:17.084Z,25.10
2022-08-22T06:47:23.148Z,25.00
2022-08-22T06:52:27.093Z,25.00
2022-08-22T06:57:33.967Z,25.10
2022-08-22T07:02:40.066Z,25.10
2022-08-22T07:07:42.818Z,25.00
2022-08-22T07:12:47.845Z,25.00
2022-08-22T07:17:52.082Z,25.00
2022-08-22T07:22:56.191Z,25.00
2022-08-22T07:28:08.066Z,25.10
2022-08-22T07:33:27.089Z,25.00
2022-08-22T07:38:35.339Z,25.10
2022-08-22T07:43:41.170Z,25.00
2022-08-22T07:49:07.737Z,25.10
2022-08-22T07:54:10.638Z,24.90
2022-08-22T07:59:16.940Z,25.00
2022-08-22T08:04:20.847Z,25.00
2022-08-22T08:09:24.746Z,25.00
2022-08-22T08:14:29.574Z,25.00
2022-08-22T08:19:33.969Z,25.00
2022-08-22T08:24:40.510Z,25.00
2022-08-22T08:29:54.476Z,25.00
2022-08-22T08:34:57.634Z,25.00
2022-08-22T08:40:02.600Z,25.10
2022-08-22T08:45:17.810Z,25.00
2022-08-22T08:50:35.390Z,25.00
2022-08-22T08:55:42.615Z,25.00
2022-08-22T09:00:50.907Z,24.90
2022-08-22T09:06:03.613Z,25.00
2022-08-22T09:11:12.325Z,25.00
2022-08-22T09:16:24.558Z,25.10
2022-08-22T09:21:45.236Z,25.00
2022-08-22T09:26:49.570Z,25.00
2022-08-22T09:32:00.185Z,25.00
2022-08-22T09:37:07.810Z,25.00
2022-08-22T09:42:14.045Z,25.00
2022-08-22T09:47:24.487Z,25.00
2022-08-22T09:52:36.983Z,25.00
2022-08-22T09:57:41.726Z,25.10
2022-08-22T10:02:54.150Z,25.00
2022-08-22T10:08:02.393Z,25.10
2022-08-22T10:13:12.611Z,25.10
2022-08-22T10:18:23.190Z,25.10
2022-08-22T10:23:31.094Z,25.10
2022-08-22T10:28:39.873Z,25.10
2022-08-22T10:33:47.092Z,25.10
2022-08-22T10:38:52.549Z,25.10
2022-08-22T10:44:01.591Z,25.10
2022-08-22T10:49:15.373Z,25.20
2022-08-22T10:54:43.178Z,25.20
2022-08-22T10:59:46.815Z,25.10
2022-08-22T11:05:04.410Z,25.20
2022-08-22T11:10:12.561Z,25.20
2022-08-22T11:15:26.221Z,25.20
2022-08-22T11:20:43.499Z,25.20
2022-08-22T11:25:55.258Z,25.30
2022-08-22T11:31:07.058Z,25.30
2022-08-22T11:36:26.791Z,25.30
2022-08-22T11:41:34.805Z,25.30
2022-08-22T11:46:41.372Z,25.40
2022-08-22T11:52:01.766Z,25.30
2022-08-22T11:57:08.137Z,25.40
2022-08-22T12:02:15.873Z,25.40
2022-08-22T12:07:26.426Z,25.30
2022-08-22T12:12:36.779Z,25.40
2022-08-22T12:17:59.944Z,25.40
2022-08-22T12:23:15.382Z,25.50
2022-08-22T12:28:26.810Z,25.50
2022-08-22T12:33:44.384Z,25.50
2022-08-22T12:38:51.384Z,25.60
2022-08-22T12:44:01.602Z,25.50
2022-08-22T12:49:12.230Z,25.50
2022-08-22T12:54:24.349Z,25.60
2022-08-22T12:59:30.277Z,25.60
2022-08-22T13:04:34.766Z,25.60
2022-08-22T13:09:39.388Z,25.60
2022-08-22T13:14:45.550Z,25.60
2022-08-22T13:19:53.549Z,25.60
2022-08-22T13:24:58.120Z,25.60
2022-08-22T13:30:06.441Z,25.70
2022-08-22T13:35:10.256Z,25.60
2022-08-22T13:40:16.404Z,25.70
2022-08-22T13:45:23.394Z,25.70
2022-08-22T13:50:27.555Z,25.70
2022-08-22T13:55:45.044Z,25.70
2022-08-22T14:01:10.394Z,25.70
2022-08-22T14:06:36.787Z,25.70
2022-08-22T14:11:43.557Z,25.70
2022-08-22T14:16:48.822Z,25.70
2022-08-22T14:21:52.450Z,25.80
2022-08-22T14:26:57.873Z,25.80
2022-08-22T14:32:04.388Z,25.80
2022-08-22T14:37:12.865Z,25.80
2022-08-22T14:42:18.510Z,25.80
2022-08-22T14:47:40.358Z,25.90
2022-08-22T14:53:04.626Z,25.90
2022-08-22T14:58:15.221Z,25.90
2022-08-22T15:03:24.489Z,25.90
2022-08-22T15:08:31.726Z,25.90
2022-08-22T15:13:35.811Z,25.90
2022-08-22T15:18:41.130Z,26.00
2022-08-22T15:23:56.037Z,26.00
2022-08-22T15:29:10.502Z,26.00
2022-08-22T15:34:18.173Z,26.00
2022-08-22T15:39:28.109Z,26.00
2022-08-22T15:44:33.738Z,26.10
2022-08-22T15:49:39.329Z,26.00
2022-08-22T15:55:00.525Z,26.10
2022-08-22T16:00:12.294Z,26.10
2022-08-22T16:05:23.469Z,26.10
2022-08-22T16:10:30.489Z,26.10
2022-08-22T16:15:56.541Z,26.10
2022-08-22T16:21:01.991Z,26.10
2022-08-22T16:26:10.168Z,26.20
2022-08-22T16:31:18.385Z,26.20
2022-08-22T16:36:36.297Z,26.10
2022-08-22T16:41:41.826Z,26.20
2022-08-22T16:46:46.450Z,26.20
2022-08-22T16:52:04.105Z,26.20
2022-08-22T16:57:14.563Z,26.20
2022-08-22T17:02:23.338Z,26.20
2022-08-22T17:07:30.003Z,26.20
2022-08-22T17:12:40.073Z,26.20
2022-08-22T17:17:50.098Z,26.20
2022-08-22T17:22:57.879Z,26.20
2022-08-22T17:28:18.106Z,26.10
2022-08-22T17:33:28.569Z,26.20
2022-08-22T17:38:38.350Z,26.20
2022-08-22T17:43:49.926Z,26.30
2022-08-22T17:48:53.997Z,26.20
2022-08-22T17:53:59.662Z,26.30
2022-08-22T17:59:05.613Z,26.20
2022-08-22T18:04:11.982Z,26.20
2022-08-22T18:09:20.025Z,26.20
2022-08-22T18:14:28.542Z,26.10
2022-08-22T18:19:39.136Z,26.20
2022-08-22T18:24:47.062Z,26.20
2022-08-22T18:29:55.587Z,26.10
2022-08-22T18:35:04.950Z,26.10
2022-08-22T18:40:12.294Z,26.10
2022-08-22T18:45:17.104Z,26.20
2022-08-22T18:50:37.388Z,26.10
2022-08-22T18:55:45.978Z,26.10
2022-08-22T19:01:10.848Z,26.10
2022-08-22T19:06:25.329Z,26.10
2022-08-22T19:11:42.830Z,26.10
2022-08-22T19:17:04.697Z,26.20
2022-08-22T19:22:22.783Z,26.00
2022-08-22T19:27:31.187Z,26.00
2022-08-22T19:33:01.427Z,26.00
2022-08-22T19:38:06.430Z,26.00
2022-08-22T19:43:20.164Z,26.10
2022-08-22T19:48:27.299Z,26.00
2022-08-22T19:53:37.517Z,25.90
2022-08-22T19:58:50.420Z,26.00
2022-08-22T20:03:55.520Z,26.00
2022-08-22T20:09:03.890Z,26.00
2022-08-22T20:14:30.935Z,25.90
2022-08-22T20:19:38.070Z,25.90
2022-08-22T20:24:45.511Z,25.90
2022-08-22T20:29:52.109Z,26.00
2022-08-22T20:34:56.906Z,26.00
2022-08-22T20:40:07.547Z,25.90
2022-08-22T20:45:29.637Z,25.90
2022-08-22T20:50:33.567Z,25.90
2022-08-22T20:55:37.774Z,25.90
2022-08-22T21:00:43.130Z,25.90
2022-08-22T21:05:46.210Z,25.90
2022-08-22T21:11:14.971Z,25.80
2022-08-22T21:16:19.751Z,25.90
2022-08-22T21:21:24.664Z,25.80
2022-08-22T21:26:30.066Z,25.90
2022-08-22T21:31:35.802Z,25.90
2022-08-22T21:36:38.815Z,25.80
2022-08-22T21:41:48.319Z,25.80
2022-08-22T21:46:52.487Z,25.80
2022-08-22T21:51:55.225Z,25.80
2022-08-22T21:57:00.762Z,25.80
2022-08-22T22:02:18.332Z,25.80
2022-08-22T22:07:23.323Z,25.90
2022-08-22T22:12:27.440Z,25.80
2022-08-22T22:17:30.142Z,25.80
2022-08-22T22:22:32.830Z,25.80
2022-08-22T22:27:40.934Z,25.70
2022-08-22T22:32:43.606Z,25.70
2022-08-22T22:37:49.845Z,25.80
2022-08-22T22:42:53.905Z,25.80
2022-08-22T22:47:56.698Z,25.80
2022-08-22T22:52:59.638Z,25.80
2022-08-22T22:58:03.855Z,25.80
2022-08-22T23:03:07.275Z,25.80
2022-08-22T23:08:09.950Z,25.80
2022-08-22T23:13:13.989Z,25.80
2022-08-22T23:18:16.687Z,25.70
2022-08-22T23:23:23.530Z,25.70
2022-08-22T23:28:27.533Z,25.70
2022-08-22T23:33:30.229Z,25.80
2022-08-22T23:38:32.910Z,25.70
2022-08-22T23:43:37.257Z,25.70
2022-08-22T23:48:39.921Z,25.70
2022-08-22T23:53:43.707Z,25.70
2022-08-22T23:58:49.025Z,25.70
